createdAt,value
2022-07-31T00:00:23.844Z,23.46
2022-07-31T00:02:51.632Z,23.47
2022-07-31T00:05:19.367Z,23.47
2022-07-31T00:07:47.144Z,23.46
2022-07-31T00:10:14.886Z,23.43
2022-07-31T00:12:43.948Z,23.45
2022-07-31T00:15:12.626Z,23.44
2022-07-31T00:17:43.506Z,23.44
2022-07-31T00:20:13.402Z,23.44
2022-07-31T00:25:01.189Z,23.39
2022-07-31T00:27:28.881Z,23.39
2022-07-31T00:29:57.947Z,23.41
2022-07-31T00:32:25.650Z,23.40
2022-07-31T00:34:53.384Z,23.40
2022-07-31T00:37:21.260Z,23.38
2022-07-31T00:39:49.463Z,23.37
2022-07-31T00:42:20.376Z,23.18
2022-07-31T00:44:48.530Z,23.37
2022-07-31T00:47:17.733Z,23.37
2022-07-31T00:49:51.801Z,23.34
2022-07-31T00:52:19.519Z,23.35
2022-07-31T00:54:47.260Z,23.33
2022-07-31T00:57:15.286Z,23.33
2022-07-31T00:59:43.734Z,23.32
2022-07-31T01:02:11.580Z,23.32
2022-07-31T01:04:41.632Z,23.30
2022-07-31T01:07:09.466Z,23.29
2022-07-31T01:09:37.239Z,23.02
2022-07-31T01:12:08.425Z,23.28
2022-07-31T01:14:38.433Z,22.96
2022-07-31T01:17:06.197Z,23.23
2022-07-31T01:19:37.913Z,23.22
2022-07-31T01:22:33.554Z,23.23
2022-07-31T01:25:07.016Z,23.02
2022-07-31T01:27:54.063Z,23.16
2022-07-31T01:30:26.578Z,23.19
2022-07-31T01:32:57.972Z,23.16
2022-07-31T01:35:28.167Z,22.66
2022-07-31T01:37:57.704Z,22.80
2022-07-31T01:40:29.189Z,23.15
2022-07-31T01:42:59.206Z,22.85
2022-07-31T01:45:28.661Z,23.16
2022-07-31T01:47:56.409Z,23.13
2022-07-31T01:50:42.176Z,23.12
2022-07-31T01:53:12.847Z,23.11
2022-07-31T01:56:00.916Z,23.10
2022-07-31T01:58:29.204Z,22.76
2022-07-31T02:00:59.630Z,23.10
2022-07-31T02:03:43.921Z,22.65
2022-07-31T02:06:13.727Z,22.74
2022-07-31T02:08:41.429Z,23.08
2022-07-31T02:11:09.159Z,23.07
2022-07-31T02:13:36.992Z,23.06
2022-07-31T02:16:06.222Z,23.03
2022-07-31T02:18:33.911Z,23.02
2022-07-31T02:21:01.639Z,23.02
2022-07-31T02:23:29.335Z,23.02
2022-07-31T02:25:57.068Z,23.02
2022-07-31T02:28:24.774Z,23.01
2022-07-31T02:30:52.507Z,23.01
2022-07-31T02:33:22.652Z,22.99
2022-07-31T02:35:50.945Z,22.43
2022-07-31T02:38:22.909Z,22.97
2022-07-31T02:40:51.685Z,22.96
2022-07-31T02:43:19.469Z,22.89
2022-07-31T02:45:47.208Z,22.67
2022-07-31T02:48:14.907Z,22.94
2022-07-31T02:50:43.987Z,22.91
2022-07-31T02:53:11.693Z,22.90
2022-07-31T02:55:39.441Z,22.90
2022-07-31T02:58:07.175Z,22.90
2022-07-31T03:00:35.015Z,22.88
2022-07-31T03:03:02.931Z,22.92
2022-07-31T03:05:31.354Z,22.89
2022-07-31T03:08:00.453Z,22.86
2022-07-31T03:10:28.303Z,22.87
2022-07-31T03:12:56.008Z,22.72
2022-07-31T03:15:25.815Z,22.88
2022-07-31T03:17:53.532Z,22.85
2022-07-31T03:20:21.251Z,22.59
2022-07-31T03:22:48.948Z,22.64
2022-07-31T03:25:21.120Z,22.82
2022-07-31T03:27:55.628Z,22.82
2022-07-31T03:30:25.783Z,22.83
2022-07-31T03:32:53.508Z,22.85
2022-07-31T03:35:21.234Z,22.83
2022-07-31T03:37:49.579Z,22.82
2022-07-31T03:40:18.690Z,22.82
2022-07-31T03:42:46.401Z,22.81
2022-07-31T03:45:14.126Z,22.80
2022-07-31T03:47:41.838Z,22.77
2022-07-31T03:50:09.681Z,22.76
2022-07-31T03:52:37.387Z,22.45
2022-07-31T03:55:05.376Z,22.74
2022-07-31T03:57:34.862Z,22.74
2022-07-31T04:00:03.117Z,22.72
2022-07-31T04:02:31.821Z,22.59
2022-07-31T04:05:00.306Z,22.73
2022-07-31T04:07:28.323Z,22.55
2022-07-31T04:09:56.057Z,22.72
2022-07-31T04:12:23.778Z,22.72
2022-07-31T04:14:52.820Z,22.73
2022-07-31T04:17:20.540Z,22.73
2022-07-31T04:19:49.585Z,22.71
2022-07-31T04:22:17.335Z,22.71
2022-07-31T04:24:45.766Z,22.70
2022-07-31T04:27:13.508Z,22.71
2022-07-31T04:29:41.199Z,22.68
2022-07-31T04:32:11.079Z,22.71
2022-07-31T04:34:38.884Z,22.68
2022-07-31T04:37:06.632Z,22.70
2022-07-31T04:39:34.384Z,22.70
2022-07-31T04:42:02.591Z,22.72
2022-07-31T04:44:31.243Z,22.70
2022-07-31T04:47:02.392Z,22.72
2022-07-31T04:49:32.339Z,22.72
2022-07-31T04:52:00.343Z,22.70
2022-07-31T04:54:29.799Z,22.69
2022-07-31T04:56:57.530Z,22.41
2022-07-31T04:59:58.534Z,22.72
2022-07-31T05:02:13.073Z,22.73
2022-07-31T05:04:42.161Z,22.73
2022-07-31T05:07:09.886Z,22.71
2022-07-31T05:09:37.822Z,22.71
2022-07-31T05:12:06.624Z,22.69
2022-07-31T05:14:34.778Z,22.69
2022-07-31T05:17:02.540Z,22.68
2022-07-31T05:19:30.935Z,22.68
2022-07-31T05:22:02.404Z,22.69
2022-07-31T05:24:33.531Z,22.68
2022-07-31T05:27:01.877Z,22.70
2022-07-31T05:29:29.623Z,22.71
2022-07-31T05:31:59.308Z,22.70
2022-07-31T05:34:29.937Z,22.71
2022-07-31T05:36:58.173Z,22.72
2022-07-31T05:39:28.214Z,22.75
2022-07-31T05:41:55.731Z,22.75
2022-07-31T05:44:23.450Z,22.81
2022-07-31T05:49:18.353Z,22.92
2022-07-31T05:51:46.780Z,22.96
2022-07-31T05:54:14.749Z,22.98
2022-07-31T05:56:43.825Z,22.97
2022-07-31T05:59:11.524Z,23.00
2022-07-31T06:01:39.295Z,23.02
2022-07-31T06:04:07.049Z,23.02
2022-07-31T06:06:34.848Z,23.02
2022-07-31T06:09:04.801Z,23.03
2022-07-31T06:11:32.856Z,23.02
2022-07-31T06:14:01.921Z,23.02
2022-07-31T06:16:29.659Z,23.01
2022-07-31T06:18:57.368Z,23.03
2022-07-31T06:21:30.123Z,23.03
2022-07-31T06:23:58.419Z,23.03
2022-07-31T06:26:26.825Z,23.03
2022-07-31T06:28:55.465Z,23.04
2022-07-31T06:31:24.675Z,23.03
2022-07-31T06:33:52.783Z,23.04
2022-07-31T06:36:20.691Z,23.05
2022-07-31T06:38:48.478Z,23.05
2022-07-31T06:41:36.549Z,23.05
2022-07-31T06:44:04.940Z,23.05
2022-07-31T06:46:34.051Z,23.05
2022-07-31T06:49:05.560Z,23.05
2022-07-31T06:51:36.214Z,23.07
2022-07-31T06:54:04.645Z,22.86
2022-07-31T06:56:32.790Z,23.09
2022-07-31T06:59:00.537Z,23.11
2022-07-31T07:01:28.468Z,23.11
2022-07-31T07:03:57.601Z,23.13
2022-07-31T07:06:25.485Z,23.15
2022-07-31T07:08:53.458Z,23.16
2022-07-31T07:11:21.391Z,22.74
2022-07-31T07:13:49.486Z,23.20
2022-07-31T07:16:17.243Z,22.85
2022-07-31T07:18:44.972Z,23.25
2022-07-31T07:21:14.050Z,23.27
2022-07-31T07:23:41.785Z,23.26
2022-07-31T07:26:09.541Z,23.27
2022-07-31T07:28:37.256Z,23.31
2022-07-31T07:31:05.035Z,23.32
2022-07-31T07:33:41.813Z,23.01
2022-07-31T07:36:23.483Z,23.38
2022-07-31T07:38:55.251Z,23.40
2022-07-31T07:41:24.109Z,23.40
2022-07-31T07:43:52.557Z,23.40
2022-07-31T07:46:21.251Z,23.42
2022-07-31T07:48:50.765Z,23.42
2022-07-31T07:51:18.567Z,23.09
2022-07-31T07:53:46.280Z,23.43
2022-07-31T07:56:15.357Z,23.44
2022-07-31T07:58:43.120Z,23.45
2022-07-31T08:01:10.950Z,23.45
2022-07-31T08:03:51.130Z,23.46
2022-07-31T08:06:21.017Z,23.47
2022-07-31T08:08:48.841Z,23.48
2022-07-31T08:11:18.238Z,23.49
2022-07-31T08:13:51.209Z,23.49
2022-07-31T08:16:20.316Z,23.06
2022-07-31T08:18:48.100Z,23.49
2022-07-31T08:21:15.904Z,23.50
2022-07-31T08:23:43.612Z,23.51
2022-07-31T08:26:11.455Z,23.52
2022-07-31T08:28:40.726Z,23.53
2022-07-31T08:31:09.236Z,23.54
2022-07-31T08:33:37.087Z,23.58
2022-07-31T08:36:08.979Z,23.61
2022-07-31T08:38:36.895Z,23.63
2022-07-31T08:41:04.758Z,23.43
2022-07-31T08:44:00.526Z,23.67
2022-07-31T08:46:21.727Z,23.68
2022-07-31T08:48:49.458Z,23.73
2022-07-31T08:51:17.215Z,23.46
2022-07-31T08:53:44.969Z,23.80
2022-07-31T08:56:12.721Z,23.83
2022-07-31T08:58:40.456Z,23.81
2022-07-31T09:01:08.944Z,23.93
2022-07-31T09:03:38.590Z,23.97
2022-07-31T09:06:06.462Z,24.02
2022-07-31T09:08:34.251Z,24.06
2022-07-31T09:11:05.950Z,23.76
2022-07-31T09:13:34.808Z,23.83
2022-07-31T09:16:02.811Z,24.24
2022-07-31T09:18:30.552Z,24.27
2022-07-31T09:21:00.557Z,24.31
2022-07-31T09:23:30.077Z,24.33
2022-07-31T09:25:59.577Z,24.35
2022-07-31T09:28:34.547Z,24.37
2022-07-31T09:31:02.506Z,24.01
2022-07-31T09:33:30.631Z,24.28
2022-07-31T09:36:00.235Z,24.40
2022-07-31T09:38:32.444Z,24.44
2022-07-31T09:41:26.781Z,24.27
2022-07-31T09:43:59.722Z,24.47
2022-07-31T09:46:27.670Z,24.45
2022-07-31T09:49:00.190Z,24.07
2022-07-31T09:51:38.999Z,24.16
2022-07-31T09:54:06.878Z,24.47
2022-07-31T09:56:34.867Z,24.48
2022-07-31T09:59:02.927Z,24.48
2022-07-31T10:01:30.745Z,24.48
2022-07-31T10:04:00.059Z,24.50
2022-07-31T10:06:29.321Z,24.51
2022-07-31T10:08:57.035Z,24.51
2022-07-31T10:11:24.801Z,24.51
2022-07-31T10:13:52.567Z,24.35
2022-07-31T10:16:22.384Z,24.57
2022-07-31T10:18:53.491Z,24.33
2022-07-31T10:21:21.237Z,24.59
2022-07-31T10:23:50.278Z,24.61
2022-07-31T10:26:18.009Z,24.64
2022-07-31T10:28:45.767Z,24.65
2022-07-31T10:31:13.597Z,24.65
2022-07-31T10:33:44.105Z,24.64
2022-07-31T10:36:14.954Z,24.46
2022-07-31T10:38:44.743Z,24.64
2022-07-31T10:41:18.959Z,24.64
2022-07-31T10:43:47.978Z,24.64
2022-07-31T10:46:15.715Z,24.63
2022-07-31T10:48:52.219Z,24.20
2022-07-31T10:51:22.400Z,24.62
2022-07-31T10:53:56.895Z,24.53
2022-07-31T10:56:27.659Z,24.63
2022-07-31T10:58:56.624Z,24.34
2022-07-31T11:01:25.913Z,24.65
2022-07-31T11:03:54.949Z,24.66
2022-07-31T11:06:24.728Z,24.67
2022-07-31T11:08:53.231Z,24.42
2022-07-31T11:11:33.450Z,24.70
2022-07-31T11:14:01.176Z,24.68
2022-07-31T11:16:29.043Z,24.69
2022-07-31T11:19:00.120Z,24.70
2022-07-31T11:21:38.948Z,24.71
2022-07-31T11:24:14.332Z,24.47
2022-07-31T11:26:51.586Z,24.71
2022-07-31T11:30:01.810Z,24.43
2022-07-31T11:32:22.883Z,24.42
2022-07-31T11:34:54.129Z,24.73
2022-07-31T11:37:23.543Z,24.74
2022-07-31T11:39:52.734Z,24.74
2022-07-31T11:42:26.479Z,24.75
2022-07-31T11:45:10.900Z,24.79
2022-07-31T11:48:10.211Z,24.79
2022-07-31T11:50:30.870Z,24.79
2022-07-31T11:53:03.785Z,24.79
2022-07-31T11:55:31.644Z,24.83
2022-07-31T11:58:00.705Z,24.81
2022-07-31T12:00:30.233Z,24.86
2022-07-31T12:02:58.505Z,24.83
2022-07-31T12:05:38.404Z,24.88
2022-07-31T12:08:07.113Z,24.89
2022-07-31T12:10:34.874Z,24.90
2022-07-31T12:13:03.970Z,24.92
2022-07-31T12:15:31.722Z,24.92
2022-07-31T12:18:01.356Z,24.93
2022-07-31T12:20:36.011Z,24.93
2022-07-31T12:23:05.698Z,24.87
2022-07-31T12:25:43.381Z,24.96
2022-07-31T12:28:14.320Z,24.97
2022-07-31T12:30:42.165Z,25.01
2022-07-31T12:33:10.475Z,24.78
2022-07-31T12:35:55.295Z,24.88
2022-07-31T12:38:45.028Z,25.05
2022-07-31T12:41:13.502Z,25.06
2022-07-31T12:43:51.557Z,25.11
2022-07-31T12:46:23.567Z,25.09
2022-07-31T12:48:51.941Z,25.10
2022-07-31T12:51:45.695Z,25.10
2022-07-31T12:54:09.073Z,25.06
2022-07-31T12:56:36.925Z,25.10
2022-07-31T12:59:06.109Z,25.10
2022-07-31T13:01:33.911Z,25.11
2022-07-31T13:04:03.257Z,25.10
2022-07-31T13:06:31.317Z,24.87
2022-07-31T13:08:59.055Z,25.11
2022-07-31T13:11:28.959Z,25.10
2022-07-31T13:13:58.290Z,25.09
2022-07-31T13:16:27.516Z,25.09
2022-07-31T13:18:55.221Z,25.09
2022-07-31T13:21:22.981Z,25.09
2022-07-31T13:23:55.705Z,25.09
2022-07-31T13:26:23.827Z,25.11
2022-07-31T13:28:51.543Z,25.11
2022-07-31T13:31:19.282Z,25.12
2022-07-31T13:33:48.388Z,25.12
2022-07-31T13:36:16.116Z,25.12
2022-07-31T13:38:43.857Z,25.12
2022-07-31T13:41:25.059Z,25.11
2022-07-31T13:43:59.716Z,25.11
2022-07-31T13:46:28.438Z,24.69
2022-07-31T13:48:59.426Z,24.86
2022-07-31T13:51:28.785Z,25.01
2022-07-31T13:53:56.894Z,25.08
2022-07-31T13:56:36.851Z,25.07
2022-07-31T13:59:11.678Z,25.06
2022-07-31T14:02:02.943Z,25.06
2022-07-31T14:04:32.241Z,24.92
2022-07-31T14:07:01.131Z,25.04
2022-07-31T14:09:28.974Z,25.03
2022-07-31T14:11:57.076Z,24.84
2022-07-31T14:14:24.778Z,25.04
2022-07-31T14:16:52.510Z,25.03
2022-07-31T14:19:20.931Z,25.02
2022-07-31T14:21:57.107Z,25.00
2022-07-31T14:24:25.063Z,25.01
2022-07-31T14:26:52.834Z,25.00
2022-07-31T14:29:20.571Z,24.99
2022-07-31T14:31:48.318Z,24.98
2022-07-31T14:34:16.034Z,24.97
2022-07-31T14:36:43.839Z,24.97
2022-07-31T14:39:12.897Z,24.98
2022-07-31T14:41:40.622Z,24.96
2022-07-31T14:44:08.312Z,24.95
2022-07-31T14:46:36.035Z,24.95
2022-07-31T14:49:04.672Z,24.62
2022-07-31T14:51:32.483Z,24.94
2022-07-31T14:54:00.647Z,24.92
2022-07-31T14:56:58.589Z,24.92
2022-07-31T14:59:17.474Z,24.91
2022-07-31T15:01:45.235Z,24.91
2022-07-31T15:04:13.003Z,24.90
2022-07-31T15:06:55.948Z,24.91
2022-07-31T15:09:26.949Z,24.89
2022-07-31T15:12:01.091Z,24.89
2022-07-31T15:14:29.487Z,24.88
2022-07-31T15:16:57.245Z,24.88
2022-07-31T15:19:24.978Z,24.87
2022-07-31T15:22:10.989Z,24.87
2022-07-31T15:24:48.454Z,24.85
2022-07-31T15:27:18.910Z,24.85
2022-07-31T15:30:04.087Z,24.76
2022-07-31T15:32:34.474Z,24.84
2022-07-31T15:35:02.287Z,24.85
2022-07-31T15:37:30.343Z,24.82
2022-07-31T15:40:02.292Z,24.84
2022-07-31T15:42:32.850Z,24.83
2022-07-31T15:45:00.545Z,24.83
2022-07-31T15:47:28.304Z,24.83
2022-07-31T15:49:56.118Z,24.83
2022-07-31T15:52:23.865Z,24.79
2022-07-31T15:54:52.601Z,24.40
2022-07-31T15:57:20.716Z,24.82
2022-07-31T15:59:49.901Z,24.83
2022-07-31T16:02:17.658Z,24.81
2022-07-31T16:04:52.732Z,24.80
2022-07-31T16:08:28.664Z,24.79
2022-07-31T16:10:15.265Z,24.78
2022-07-31T16:12:45.291Z,24.77
2022-07-31T16:15:14.375Z,24.77
2022-07-31T16:17:42.083Z,24.77
2022-07-31T16:20:11.088Z,24.62
2022-07-31T16:22:39.073Z,24.76
2022-07-31T16:25:08.639Z,24.75
2022-07-31T16:27:36.412Z,24.73
2022-07-31T16:30:04.470Z,24.71
2022-07-31T16:32:33.623Z,24.74
2022-07-31T16:35:01.808Z,24.46
2022-07-31T16:37:51.234Z,24.34
2022-07-31T16:40:31.032Z,24.57
2022-07-31T16:43:01.736Z,24.77
2022-07-31T16:45:30.079Z,24.76
2022-07-31T16:47:59.175Z,24.77
2022-07-31T16:50:27.305Z,24.77
2022-07-31T16:52:55.470Z,24.75
2022-07-31T16:55:53.105Z,24.80
2022-07-31T16:58:12.140Z,24.80
2022-07-31T17:00:40.235Z,24.85
2022-07-31T17:03:31.080Z,24.88
2022-07-31T17:05:57.167Z,24.91
2022-07-31T17:08:24.886Z,24.93
2022-07-31T17:10:54.658Z,24.93
2022-07-31T17:13:22.730Z,24.96
2022-07-31T17:15:50.478Z,24.98
2022-07-31T17:18:24.911Z,24.79
2022-07-31T17:20:53.149Z,25.01
2022-07-31T17:23:42.641Z,25.04
2022-07-31T17:26:21.542Z,24.79
2022-07-31T17:28:50.249Z,24.93
2022-07-31T17:31:18.106Z,25.02
2022-07-31T17:33:59.530Z,25.00
2022-07-31T17:36:29.319Z,24.99
2022-07-31T17:38:57.177Z,24.93
2022-07-31T17:41:26.057Z,24.98
2022-07-31T17:43:54.345Z,24.96
2022-07-31T17:46:34.233Z,24.96
2022-07-31T17:49:08.174Z,24.95
2022-07-31T17:51:36.084Z,24.93
2022-07-31T17:54:03.997Z,24.61
2022-07-31T17:56:31.796Z,24.90
2022-07-31T17:59:04.505Z,24.52
2022-07-31T18:01:33.261Z,24.89
2022-07-31T18:04:01.051Z,24.38
2022-07-31T18:06:30.248Z,24.87
2022-07-31T18:08:58.094Z,24.85
2022-07-31T18:11:26.063Z,24.84
2022-07-31T18:13:54.169Z,24.84
2022-07-31T18:16:24.746Z,24.83
2022-07-31T18:18:54.517Z,24.82
2022-07-31T18:21:22.263Z,24.79
2022-07-31T18:23:51.330Z,24.78
2022-07-31T18:26:19.074Z,24.78
2022-07-31T18:28:46.804Z,24.77
2022-07-31T18:31:34.042Z,24.76
2022-07-31T18:34:02.750Z,24.76
2022-07-31T18:36:30.565Z,24.76
2022-07-31T18:38:59.631Z,24.75
2022-07-31T18:41:27.525Z,24.75
2022-07-31T18:43:55.223Z,24.74
2022-07-31T18:46:23.831Z,24.72
2022-07-31T18:48:55.421Z,24.73
2022-07-31T18:51:24.021Z,24.72
2022-07-31T18:53:51.851Z,24.71
2022-07-31T18:56:23.917Z,24.70
2022-07-31T18:58:51.832Z,24.70
2022-07-31T19:01:19.634Z,24.70
2022-07-31T19:03:47.426Z,24.69
2022-07-31T19:06:15.193Z,24.68
2022-07-31T19:08:42.891Z,24.68
2022-07-31T19:11:11.733Z,24.34
2022-07-31T19:13:40.762Z,24.67
2022-07-31T19:16:08.563Z,24.65
2022-07-31T19:18:37.675Z,24.47
2022-07-31T19:21:22.967Z,24.61
2022-07-31T19:23:53.760Z,24.62
2022-07-31T19:26:21.483Z,24.62
2022-07-31T19:28:51.203Z,24.62
2022-07-31T19:31:18.959Z,24.61
2022-07-31T19:33:46.678Z,24.15
2022-07-31T19:36:15.388Z,24.58
2022-07-31T19:38:44.328Z,24.20
2022-07-31T19:41:12.359Z,24.54
2022-07-31T19:43:40.070Z,24.56
2022-07-31T19:46:11.937Z,24.55
2022-07-31T19:48:41.649Z,24.53
2022-07-31T19:51:09.560Z,24.52
2022-07-31T19:53:37.391Z,24.51
2022-07-31T19:56:06.440Z,24.47
2022-07-31T19:58:34.820Z,24.50
2022-07-31T20:01:03.131Z,24.49
2022-07-31T20:03:32.419Z,24.48
2022-07-31T20:06:00.386Z,24.46
2022-07-31T20:08:29.788Z,24.46
2022-07-31T20:11:03.341Z,24.46
2022-07-31T20:13:31.672Z,24.44
2022-07-31T20:15:59.401Z,24.45
2022-07-31T20:18:30.584Z,24.20
2022-07-31T20:21:00.372Z,24.40
2022-07-31T20:23:28.096Z,24.38
2022-07-31T20:25:55.899Z,24.41
2022-07-31T20:28:23.640Z,24.40
2022-07-31T20:30:51.523Z,24.40
2022-07-31T20:33:19.235Z,24.40
2022-07-31T20:35:48.671Z,24.39
2022-07-31T20:38:18.913Z,24.39
2022-07-31T20:40:53.420Z,24.38
2022-07-31T20:43:21.925Z,24.39
2022-07-31T20:45:49.685Z,24.37
2022-07-31T20:48:17.794Z,24.37
2022-07-31T20:50:48.253Z,24.35
2022-07-31T20:53:16.307Z,24.35
2022-07-31T20:55:46.995Z,24.34
2022-07-31T20:58:14.902Z,24.34
2022-07-31T21:00:42.620Z,24.11
2022-07-31T21:03:10.389Z,24.33
2022-07-31T21:05:38.100Z,24.33
2022-07-31T21:08:05.984Z,24.32
2022-07-31T21:10:34.156Z,24.32
2022-07-31T21:13:03.232Z,24.32
2022-07-31T21:15:43.358Z,24.31
2022-07-31T21:18:12.375Z,24.29
2022-07-31T21:20:50.313Z,24.30
2022-07-31T21:23:20.449Z,23.93
2022-07-31T21:25:48.427Z,24.31
2022-07-31T21:28:18.080Z,24.29
2022-07-31T21:30:46.073Z,24.28
2022-07-31T21:33:14.068Z,24.30
2022-07-31T21:35:42.216Z,24.31
2022-07-31T21:38:11.799Z,24.28
2022-07-31T21:40:40.391Z,24.30
2022-07-31T21:43:08.666Z,24.31
2022-07-31T21:45:55.797Z,24.01
2022-07-31T21:48:26.902Z,24.06
2022-07-31T21:50:54.920Z,24.18
2022-07-31T21:53:22.710Z,24.29
2022-07-31T21:55:50.453Z,23.91
2022-07-31T21:58:18.282Z,24.27
2022-07-31T22:00:47.541Z,24.28
2022-07-31T22:03:15.404Z,24.27
2022-07-31T22:06:00.776Z,24.26
2022-07-31T22:08:28.511Z,24.27
2022-07-31T22:10:56.264Z,24.27
2022-07-31T22:13:24.039Z,24.25
2022-07-31T22:16:00.290Z,24.25
2022-07-31T22:18:28.996Z,24.17
2022-07-31T22:20:57.378Z,24.23
2022-07-31T22:23:25.403Z,24.21
2022-07-31T22:25:53.304Z,24.22
2022-07-31T22:28:21.871Z,24.23
2022-07-31T22:30:50.818Z,24.03
2022-07-31T22:33:20.107Z,24.22
2022-07-31T22:35:59.156Z,24.19
2022-07-31T22:38:28.517Z,24.18
2022-07-31T22:40:56.384Z,24.20
2022-07-31T22:44:09.373Z,24.18
2022-07-31T22:46:12.847Z,23.93
2022-07-31T22:48:42.095Z,24.16
2022-07-31T22:51:12.818Z,23.95
2022-07-31T22:53:42.813Z,24.15
2022-07-31T22:56:10.547Z,24.15
2022-07-31T22:58:38.268Z,24.15
2022-07-31T23:01:06.030Z,24.15
2022-07-31T23:03:33.746Z,24.15
2022-07-31T23:06:30.723Z,24.14
2022-07-31T23:08:53.841Z,24.13
2022-07-31T23:11:23.358Z,24.14
2022-07-31T23:13:51.286Z,24.15
2022-07-31T23:16:20.282Z,24.14
2022-07-31T23:18:48.117Z,24.12
2022-07-31T23:21:17.194Z,24.12
2022-07-31T23:23:48.829Z,24.11
2022-07-31T23:26:17.699Z,24.11
2022-07-31T23:28:45.403Z,24.12
2022-07-31T23:31:13.132Z,24.09
2022-07-31T23:33:40.999Z,24.09
2022-07-31T23:36:08.825Z,24.08
2022-07-31T23:38:37.919Z,24.08
2022-07-31T23:41:05.703Z,24.06
2022-07-31T23:43:32.471Z,24.06
2022-07-31T23:46:00.239Z,24.07
2022-07-31T23:48:30.019Z,24.06
2022-07-31T23:50:58.078Z,24.06
2022-07-31T23:53:25.822Z,24.05
2022-07-31T23:55:54.939Z,24.04
2022-07-31T23:58:22.693Z,24.05
